Ana Sayfa
METAR-TAF:

METAR-TAF

Havaalanları :

Indiana County Airport (Jimmy Stewart Field)

Indiana, Pensilvanya, Amerika Birleşik Devletleri

Enlem: 40-38N, Boylam: 079-06W, yükseklik: 429 m

Güncel hava durumu gözlemi

Rapor saat 04:35 UTC de 12 dakika önce yapıldı.
Sakin rüzgar
Sıcaklık 19°C
Nem 88%
Basınç 1021 hPa
Görüş mesafesi: 16.1 km
Açık gökyüzü

METAR: KIDI 160435Z AUTO 00000KT 10SM CLR 19/17 A3015 RMK A01

Saat: 00:47 (04:47 UTC)


TAF: eksik

4.000'den fazla havaalanı için hava durumu gözlemleri ve tahminleri (METAR ve TAF raporları).

Kullanılabilir istasyonlar harita üzerinde sarı ve kırmızı noktalarla gösterilir.

İstasyonun adını görmek için fareyi noktanın üzerinde gezdirin.

Sonrasında hava gözlem ve tahminlerini görmek için tıklayın.

Haritayı değiştirmek için: yaklaştırmak için siyah artı işaretli yeşil düğmeye ve uzaklaştırmak için de eksi işaretli düğmeye hızla tıklayın; bitişik haritalar için yeşil okları kullanın.


METAR-TAF: